CheckWX is a tool to help pilots better visualize weather data.  It is not intended as a substitute for an official pre-flight weather briefing.

20:55:42 UTC

KJLN METAR
Joplin Regional Airport
Joplin, Missouri, USA
Current

1 hour ago

KJLN 201953Z 24006KT 10SM CLR 21/04 A2996 RMK AO2 SLP144 T02110044
Observed
Apr-20 @ 19:53 UTC
Wind
  • 240° at 6 KTS
Visibility
10 SM
Flight Rules
VFR
Cloud Levels
  • Clear skies
Temperature
21°C / 70°F
Dewpoint
C / 39°F
Humidity
33%
Altimeter
29.96" Hg
Pressure
1014.52 hPa
Previous

2 hours ago

KJLN 201853Z 21009KT 10SM CLR 21/05 A2998 RMK AO2 SLP149 T02060050
Observed
Apr-20 @ 18:53 UTC
Wind
  • 210° at 9 KTS
Visibility
10 SM
Flight Rules
VFR
Cloud Levels
  • Clear skies
Temperature
21°C / 70°F
Dewpoint
C / 41°F
Humidity
35%
Altimeter
29.98" Hg
Pressure
1015.22 hPa
Previous

3 hours ago

KJLN 201753Z 24008G18KT 10SM CLR 19/04 A3001 RMK AO2 SLP157 T01940039 10194 20017 58008
Observed
Apr-20 @ 17:53 UTC
Wind
  • 240° at 8 KTS
  • Gusting to 18 KTS
Visibility
10 SM
Flight Rules
VFR
Cloud Levels
  • Clear skies
Temperature
19°C / 66°F
Dewpoint
C / 39°F
Humidity
37%
Altimeter
30.01" Hg
Pressure
1016.22 hPa